La Puntilla, Argentina
Current Conditions -  °F | °C
As of 8:00 PM on Tuesday 25 Nov 2014 (Local Time) from SAME Reporting Station
Few Clouds Few Clouds  
Wind Chill: 26°   Ceiling: Unl
Heat Index: 26°   Visibility: 6mi
Dew Point:   Wind: 6mph
Humidity: 21%   Direction: 200°SSW
Pressure: 29.85"   Gusts: NA
Location:  32.97°S, 68.87°W
Report Text: SAME 252300Z 20005KT 9999 FEW045TCU FEW050 26/02 Q1011
Loading
Personal Weather Stations






























Interactive Weather Map New forecast layout! Learn more

10-Day Weather Forecast

Advertisements
Track Severe Weather on mobile